Time;durP1;ratioP1;P1;durP2;ratioP2;P2;SDS_P1;SDS_P2;PMS_P1;PMS_P2;Temp;Humidity;BMP_temperature;BMP_pressure;BME280_temperature;BME280_humidity;BME280_pressure;Samples;Min_cycle;Max_cycle;Signal;HPM_P1;HPM_P2
2022/06/30 00:00:24;;;;;;;12.18;11.07;;;17.20;99.90;;;;;;4663887;30;20054;-84
2022/06/30 00:02:50;;;;;;;12.02;10.77;;;17.30;99.90;;;;;;4662330;30;20530;-84
2022/06/30 00:05:16;;;;;;;12.40;10.85;;;17.40;99.90;;;;;;4649121;30;20049;-84
2022/06/30 00:07:42;;;;;;;12.65;11.45;;;17.50;99.90;;;;;;4677521;30;20050;-85
2022/06/30 00:10:10;;;;;;;12.70;11.38;;;17.60;99.90;;;;;;4648058;30;20064;-84
2022/06/30 00:12:36;;;;;;;14.85;13.55;;;17.60;99.90;;;;;;4648366;30;20058;-85
2022/06/30 00:15:01;;;;;;;14.13;12.93;;;17.60;99.90;;;;;;4691378;30;20054;-85
2022/06/30 00:17:27;;;;;;;19.73;17.83;;;17.60;99.90;;;;;;4677612;30;20487;-84
2022/06/30 00:19:53;;;;;;;18.42;16.83;;;17.60;99.90;;;;;;4663535;30;20117;-84
2022/06/30 00:22:18;;;;;;;22.10;20.05;;;17.50;99.90;;;;;;4649876;30;20585;-85
2022/06/30 00:24:44;;;;;;;20.65;18.85;;;17.50;99.90;;;;;;4694200;30;20129;-85
2022/06/30 00:27:11;;;;;;;19.27;17.38;;;17.50;99.90;;;;;;4665431;30;20134;-85
2022/06/30 00:29:38;;;;;;;17.75;16.13;;;17.40;99.90;;;;;;4666045;30;20050;-85
2022/06/30 00:32:04;;;;;;;17.75;16.25;;;17.40;99.90;;;;;;4652208;30;20050;-84
2022/06/30 00:34:29;;;;;;;18.70;16.95;;;17.30;99.90;;;;;;4689223;30;20051;-84
2022/06/30 00:36:55;;;;;;;18.08;16.48;;;17.20;99.90;;;;;;4692757;30;20046;-85
2022/06/30 00:39:22;;;;;;;17.38;15.88;;;17.20;99.90;;;;;;4652422;30;20046;-85
2022/06/30 00:41:47;;;;;;;16.67;15.18;;;17.20;99.90;;;;;;4652257;30;20059;-85
2022/06/30 00:44:13;;;;;;;15.50;14.18;;;17.10;99.90;;;;;;4651904;30;20035;-84
2022/06/30 00:46:40;;;;;;;14.73;13.30;;;17.00;99.90;;;;;;4651998;30;20100;-84
2022/06/30 00:49:07;;;;;;;14.80;13.50;;;16.90;99.90;;;;;;4666033;30;20054;-85
2022/06/30 00:51:32;;;;;;;14.52;13.23;;;16.90;99.90;;;;;;4651833;30;20078;-84
2022/06/30 00:54:01;;;;;;;13.85;12.52;;;16.80;99.90;;;;;;4653026;30;20475;-84
2022/06/30 00:56:27;;;;;;;12.18;11.18;;;16.80;99.90;;;;;;4652196;30;20082;-86
2022/06/30 00:58:56;;;;;;;13.52;12.32;;;16.70;99.90;;;;;;4666238;30;20050;-85
2022/06/30 01:01:24;;;;;;;11.93;10.73;;;16.70;99.90;;;;;;4678933;30;20050;-85
2022/06/30 01:03:53;;;;;;;11.05;10.15;;;16.70;99.90;;;;;;4664312;30;20522;-85
2022/06/30 01:06:21;;;;;;;10.95;9.27;;;16.70;99.90;;;;;;4652067;30;20088;-85
2022/06/30 01:08:47;;;;;;;9.75;8.80;;;16.70;99.90;;;;;;4651929;30;20415;-86
2022/06/30 01:14:03;;;;;;;9.93;8.07;;;16.80;99.90;;;;;;4680099;30;20086;-85
2022/06/30 01:16:29;;;;;;;9.18;8.25;;;16.90;99.90;;;;;;4651293;30;20057;-85
2022/06/30 01:18:55;;;;;;;11.45;8.63;;;17.00;99.90;;;;;;4658607;30;20060;-85
2022/06/30 01:21:21;;;;;;;9.07;8.15;;;17.10;99.90;;;;;;4665109;30;20121;-85
2022/06/30 01:23:47;;;;;;;7.93;7.22;;;17.10;99.90;;;;;;4666260;30;20050;-84
2022/06/30 01:26:12;;;;;;;8.48;7.57;;;17.20;99.90;;;;;;4665495;30;20514;-84
2022/06/30 01:28:38;;;;;;;10.10;8.00;;;17.20;99.90;;;;;;4693390;30;20039;-85
2022/06/30 01:31:04;;;;;;;9.52;7.70;;;17.20;99.90;;;;;;4651126;30;20046;-85
2022/06/30 01:33:30;;;;;;;8.55;7.75;;;17.30;99.90;;;;;;4665726;30;20054;-86
2022/06/30 01:35:56;;;;;;;8.23;7.45;;;17.40;99.90;;;;;;4679553;30;20061;-85
2022/06/30 01:38:22;;;;;;;8.05;7.22;;;17.40;99.90;;;;;;4693902;30;20125;-85
2022/06/30 01:40:48;;;;;;;9.57;7.40;;;17.50;99.90;;;;;;4650895;30;20042;-85
2022/06/30 01:43:14;;;;;;;8.68;7.88;;;17.50;99.90;;;;;;4664716;30;20046;-85
2022/06/30 01:45:41;;;;;;;8.52;7.70;;;17.50;99.90;;;;;;4651220;30;20500;-85
2022/06/30 01:48:08;;;;;;;9.23;8.10;;;17.50;99.90;;;;;;4665006;30;20097;-85
2022/06/30 01:50:34;;;;;;;8.48;7.78;;;17.50;99.90;;;;;;4665371;30;20050;-85
2022/06/30 01:53:01;;;;;;;8.02;7.28;;;17.50;99.90;;;;;;4665401;30;20055;-85
2022/06/30 01:55:27;;;;;;;8.52;7.72;;;17.40;99.90;;;;;;4665211;30;20396;-85
2022/06/30 01:57:54;;;;;;;8.23;7.47;;;17.40;99.90;;;;;;4649876;30;20532;-85
2022/06/30 02:00:21;;;;;;;8.38;7.57;;;17.40;99.90;;;;;;4665504;30;20509;-85
2022/06/30 02:02:50;;;;;;;8.80;8.00;;;17.40;99.90;;;;;;4665159;30;20054;-85
2022/06/30 02:05:17;;;;;;;8.10;7.28;;;17.40;99.90;;;;;;4664922;30;20054;-85
2022/06/30 02:07:43;;;;;;;8.52;7.65;;;17.40;99.90;;;;;;4663647;30;20045;-86
2022/06/30 02:10:11;;;;;;;7.78;7.07;;;17.40;99.90;;;;;;4649550;30;20046;-85
2022/06/30 02:12:46;;;;;;;8.07;6.88;;;17.50;99.90;;;;;;4664947;30;20038;-88
2022/06/30 02:15:18;;;;;;;10.10;7.57;;;17.50;99.90;;;;;;4634134;30;20061;-85
2022/06/30 02:17:45;;;;;;;9.07;7.90;;;17.50;99.90;;;;;;4644965;30;20062;-85
2022/06/30 02:20:12;;;;;;;9.13;7.57;;;17.50;99.90;;;;;;4671735;30;20061;-85
2022/06/30 02:22:39;;;;;;;8.27;7.40;;;17.40;99.90;;;;;;4675232;30;20077;-85
2022/06/30 02:25:06;;;;;;;8.38;7.57;;;17.40;99.90;;;;;;4664144;30;20076;-85
2022/06/30 02:27:32;;;;;;;8.57;7.78;;;17.40;99.90;;;;;;4678952;30;20053;-86
2022/06/30 02:29:58;;;;;;;8.48;7.68;;;17.40;99.90;;;;;;4664053;30;20046;-85
2022/06/30 02:32:24;;;;;;;9.95;8.00;;;17.40;99.90;;;;;;4664102;30;20514;-85
2022/06/30 02:34:51;;;;;;;8.95;8.05;;;17.40;99.90;;;;;;4649852;30;20050;-85
2022/06/30 02:37:17;;;;;;;8.90;8.00;;;17.40;99.90;;;;;;4678940;30;20121;-85
2022/06/30 02:39:42;;;;;;;8.73;7.93;;;17.40;99.90;;;;;;4663643;30;20101;-85
2022/06/30 02:42:08;;;;;;;8.77;7.93;;;17.40;99.90;;;;;;4663805;30;20480;-85
2022/06/30 02:44:34;;;;;;;9.45;8.60;;;17.40;99.90;;;;;;4663943;30;20439;-85
2022/06/30 02:47:00;;;;;;;9.35;8.50;;;17.40;99.90;;;;;;4692454;30;20043;-85
2022/06/30 02:49:26;;;;;;;9.93;8.38;;;17.40;99.90;;;;;;4650090;30;20049;-85
2022/06/30 02:51:52;;;;;;;9.88;8.85;;;17.30;99.90;;;;;;4649748;30;20046;-86
2022/06/30 02:54:17;;;;;;;10.05;9.13;;;17.30;99.90;;;;;;4688626;30;20050;-86
2022/06/30 02:56:44;;;;;;;9.07;8.27;;;17.30;99.90;;;;;;4678241;30;20046;-85
2022/06/30 02:59:09;;;;;;;9.88;8.90;;;17.20;99.90;;;;;;4663518;30;20491;-85
2022/06/30 03:01:35;;;;;;;9.43;8.63;;;17.10;99.90;;;;;;4657062;30;20046;-85
2022/06/30 03:04:02;;;;;;;9.75;8.80;;;17.10;99.90;;;;;;4656492;30;20054;-84
2022/06/30 03:06:29;;;;;;;10.07;9.07;;;17.10;99.90;;;;;;4663362;30;20082;-85
2022/06/30 03:08:55;;;;;;;10.35;9.40;;;17.00;99.90;;;;;;4649263;30;20038;-85
2022/06/30 03:11:22;;;;;;;10.02;9.02;;;17.00;99.90;;;;;;4650079;30;20056;-85
2022/06/30 03:13:47;;;;;;;10.55;9.55;;;16.90;99.90;;;;;;4649892;30;20038;-85
2022/06/30 03:16:13;;;;;;;10.65;9.68;;;16.90;99.90;;;;;;4663027;30;20043;-85
2022/06/30 03:18:40;;;;;;;10.43;9.43;;;16.80;99.90;;;;;;4665873;30;20042;-84
2022/06/30 03:21:06;;;;;;;10.32;9.32;;;16.80;99.90;;;;;;4663749;30;20118;-85
2022/06/30 03:23:32;;;;;;;11.50;10.48;;;16.80;99.90;;;;;;4650009;30;20046;-85
2022/06/30 03:25:58;;;;;;;11.30;10.10;;;16.60;99.90;;;;;;4663542;30;20038;-85
2022/06/30 03:28:23;;;;;;;11.90;10.90;;;16.60;99.90;;;;;;4649347;30;20050;-85
2022/06/30 03:30:49;;;;;;;11.32;10.32;;;16.50;99.90;;;;;;4663769;30;20053;-84
2022/06/30 03:33:15;;;;;;;11.43;10.35;;;16.40;99.90;;;;;;4649584;30;20039;-85
2022/06/30 03:35:42;;;;;;;11.57;10.60;;;16.30;99.90;;;;;;4648726;30;20042;-85
2022/06/30 03:38:07;;;;;;;12.65;11.55;;;16.30;99.90;;;;;;4649744;30;20052;-84
2022/06/30 03:40:33;;;;;;;12.60;11.45;;;16.20;99.90;;;;;;4654328;30;20054;-85
2022/06/30 03:42:59;;;;;;;12.43;11.32;;;16.20;99.90;;;;;;4692279;30;20133;-85
2022/06/30 03:45:26;;;;;;;11.55;10.57;;;16.10;99.90;;;;;;4669797;30;20077;-85
2022/06/30 03:47:52;;;;;;;12.15;10.95;;;16.20;99.90;;;;;;4663239;30;20042;-85
2022/06/30 03:50:17;;;;;;;11.80;10.80;;;16.20;99.90;;;;;;4663255;30;20051;-87
2022/06/30 03:52:43;;;;;;;11.10;9.95;;;16.20;99.90;;;;;;4691267;30;20069;-85
2022/06/30 03:55:10;;;;;;;12.50;10.80;;;16.20;99.90;;;;;;4683333;30;20082;-84
2022/06/30 03:57:36;;;;;;;11.10;10.10;;;16.20;99.90;;;;;;4676821;30;20057;-85
2022/06/30 04:00:03;;;;;;;10.80;9.82;;;16.20;99.90;;;;;;4663270;30;20054;-85
2022/06/30 04:02:28;;;;;;;10.80;9.88;;;16.30;99.90;;;;;;4648928;30;20054;-85
2022/06/30 04:04:54;;;;;;;11.32;10.32;;;16.30;99.90;;;;;;4674191;30;20062;-84
2022/06/30 04:07:20;;;;;;;10.80;9.68;;;16.40;99.90;;;;;;4659490;30;20042;-85
2022/06/30 04:09:45;;;;;;;13.52;11.05;;;16.40;99.90;;;;;;4676928;30;20495;-85
2022/06/30 04:12:11;;;;;;;11.52;10.27;;;16.40;99.90;;;;;;4662603;30;20496;-85
2022/06/30 04:14:37;;;;;;;12.13;10.93;;;16.50;99.90;;;;;;4663016;30;20396;-85
2022/06/30 04:17:03;;;;;;;11.93;10.73;;;16.50;99.90;;;;;;4661679;30;20058;-85
2022/06/30 04:19:28;;;;;;;10.95;9.98;;;16.50;99.90;;;;;;4647499;30;20050;-88
2022/06/30 04:21:54;;;;;;;11.35;10.43;;;16.50;99.90;;;;;;4676520;30;20050;-85
2022/06/30 04:24:19;;;;;;;12.38;11.38;;;16.50;99.90;;;;;;4662696;30;20054;-85
2022/06/30 04:26:45;;;;;;;11.57;10.45;;;16.50;99.90;;;;;;4662047;30;20110;-85
2022/06/30 04:29:11;;;;;;;12.07;10.88;;;16.60;99.90;;;;;;4648397;30;20046;-85
2022/06/30 04:34:21;;;;;;;10.82;9.82;;;16.70;99.90;;;;;;4676201;30;20073;-85
2022/06/30 04:36:47;;;;;;;12.07;10.50;;;16.80;99.90;;;;;;4674446;30;20051;-84
2022/06/30 04:39:13;;;;;;;10.40;9.50;;;16.90;99.90;;;;;;4661602;30;20134;-84
2022/06/30 04:41:38;;;;;;;9.70;8.90;;;17.10;99.90;;;;;;4662480;30;20133;-85
2022/06/30 04:44:05;;;;;;;10.35;9.45;;;17.20;99.90;;;;;;4661851;30;20141;-85
2022/06/30 04:46:31;;;;;;;10.07;9.18;;;17.40;99.90;;;;;;4690761;30;20137;-85
2022/06/30 04:48:57;;;;;;;10.55;9.55;;;17.60;99.90;;;;;;4666001;30;20419;-84
2022/06/30 04:51:23;;;;;;;10.48;9.55;;;17.70;99.90;;;;;;4662023;30;20744;-84
2022/06/30 04:53:50;;;;;;;10.02;9.13;;;17.90;99.90;;;;;;4675984;30;20058;-86
2022/06/30 04:56:16;;;;;;;9.10;8.30;;;18.10;99.90;;;;;;4675632;30;20044;-85
2022/06/30 04:58:42;;;;;;;9.60;8.68;;;18.40;99.90;;;;;;4662355;30;20124;-84
2022/06/30 05:01:07;;;;;;;9.18;8.38;;;18.60;99.90;;;;;;4687767;30;20050;-85
2022/06/30 05:03:33;;;;;;;9.32;8.43;;;18.80;99.90;;;;;;4657968;30;20046;-84
2022/06/30 05:05:59;;;;;;;9.27;8.30;;;18.90;99.90;;;;;;4613044;30;1089814;-84
2022/06/30 05:08:26;;;;;;;9.20;8.30;;;19.10;99.90;;;;;;4663513;30;20118;-84
2022/06/30 05:10:51;;;;;;;9.32;8.40;;;19.30;99.90;;;;;;4693521;30;20101;-84
2022/06/30 05:13:17;;;;;;;8.95;8.15;;;19.50;99.90;;;;;;4666005;30;20046;-86
2022/06/30 05:15:45;;;;;;;9.35;8.40;;;19.70;99.90;;;;;;4651715;30;20042;-86
2022/06/30 05:18:11;;;;;;;9.90;8.45;;;19.90;99.90;;;;;;4663815;30;20516;-84
2022/06/30 05:20:38;;;;;;;8.93;8.13;;;20.00;99.90;;;;;;4665134;30;20046;-84
2022/06/30 05:23:04;;;;;;;8.38;7.68;;;20.20;99.90;;;;;;4680231;30;20049;-84
2022/06/30 05:28:14;;;;;;;9.02;8.27;;;20.50;99.90;;;;;;4679727;30;20112;-86
2022/06/30 05:30:41;;;;;;;9.57;8.68;;;20.60;99.90;;;;;;4667553;30;20046;-85
2022/06/30 05:33:07;;;;;;;8.77;8.07;;;20.80;99.90;;;;;;4658798;30;20047;-86
2022/06/30 05:35:33;;;;;;;8.82;8.00;;;20.90;99.90;;;;;;4661140;30;20291;-85
2022/06/30 05:37:58;;;;;;;9.45;8.55;;;21.00;99.90;;;;;;4650985;30;20054;-86
2022/06/30 05:40:24;;;;;;;9.50;8.38;;;21.10;99.90;;;;;;4651523;30;20042;-85
2022/06/30 05:42:50;;;;;;;9.38;8.48;;;21.30;99.90;;;;;;4665528;30;20054;-85
2022/06/30 05:45:15;;;;;;;9.65;8.73;;;21.30;99.90;;;;;;4663716;30;20042;-85
2022/06/30 05:47:51;;;;;;;9.60;8.70;;;21.40;99.90;;;;;;4693916;30;20100;-85
2022/06/30 05:50:21;;;;;;;9.18;8.38;;;21.40;99.90;;;;;;4648490;30;20047;-87
2022/06/30 05:52:47;;;;;;;10.23;8.60;;;21.50;99.90;;;;;;4662563;30;20043;-88
2022/06/30 05:55:13;;;;;;;9.57;8.77;;;21.60;99.90;;;;;;4662831;30;20051;-84
2022/06/30 05:58:11;;;;;;;10.07;9.18;;;21.60;99.90;;;;;;4663499;30;20051;-82
2022/06/30 06:00:36;;;;;;;10.27;9.38;;;21.60;99.90;;;;;;4661945;30;20133;-82
2022/06/30 06:03:02;;;;;;;11.68;9.05;;;21.50;99.90;;;;;;4679102;30;20146;-82
2022/06/30 06:05:28;;;;;;;10.38;9.38;;;21.40;99.90;;;;;;4664763;30;20046;-82
2022/06/30 06:07:54;;;;;;;11.15;10.05;;;21.30;99.90;;;;;;4664808;30;20057;-84
2022/06/30 06:10:20;;;;;;;10.55;9.63;;;21.30;99.90;;;;;;4664865;30;20047;-84
2022/06/30 06:12:45;;;;;;;10.90;9.90;;;21.20;99.90;;;;;;4669778;30;20047;-82
2022/06/30 06:15:12;;;;;;;11.35;10.35;;;21.10;99.90;;;;;;4677255;30;20038;-82
2022/06/30 06:17:43;;;;;;;11.45;10.45;;;21.00;99.90;;;;;;4664517;30;20042;-82
2022/06/30 06:20:10;;;;;;;12.57;10.95;;;20.90;99.90;;;;;;4648630;30;20077;-85
2022/06/30 06:22:36;;;;;;;12.23;11.13;;;20.90;99.90;;;;;;4692423;30;20039;-85
2022/06/30 06:25:03;;;;;;;11.73;10.60;;;20.80;99.90;;;;;;4676507;30;20053;-85
2022/06/30 06:27:28;;;;;;;12.50;11.30;;;20.80;99.90;;;;;;4664356;30;20054;-86
2022/06/30 06:29:54;;;;;;;12.55;11.55;;;20.80;99.90;;;;;;4693399;30;20046;-86
2022/06/30 06:32:22;;;;;;;13.50;12.27;;;20.90;99.90;;;;;;4650457;30;20054;-85
2022/06/30 06:34:47;;;;;;;14.02;12.93;;;20.90;99.90;;;;;;4650549;30;20050;-87
2022/06/30 06:37:13;;;;;;;13.07;11.88;;;20.80;99.90;;;;;;4650069;30;20573;-85
2022/06/30 06:39:38;;;;;;;13.70;12.52;;;20.90;99.90;;;;;;4661301;30;20050;-85
2022/06/30 06:42:04;;;;;;;13.75;12.57;;;20.90;99.90;;;;;;4692472;30;20090;-86
2022/06/30 06:44:30;;;;;;;14.15;12.95;;;20.90;99.90;;;;;;4664444;30;20054;-86
2022/06/30 06:46:55;;;;;;;13.65;12.45;;;20.90;99.90;;;;;;4663962;30;20050;-86
2022/06/30 06:49:21;;;;;;;15.30;13.90;;;21.00;99.90;;;;;;4663932;30;20534;-86
2022/06/30 06:51:46;;;;;;;14.63;13.18;;;21.00;99.90;;;;;;4664359;30;20046;-86
2022/06/30 06:54:12;;;;;;;14.38;12.77;;;21.00;99.90;;;;;;4664648;30;20410;-86
2022/06/30 06:56:38;;;;;;;13.75;12.65;;;21.10;99.90;;;;;;4664330;30;20093;-87
2022/06/30 06:59:03;;;;;;;14.98;13.55;;;21.20;99.90;;;;;;4664412;30;20054;-86
2022/06/30 07:01:29;;;;;;;14.75;13.45;;;21.30;99.90;;;;;;4663272;30;20053;-86
2022/06/30 07:03:55;;;;;;;14.38;12.95;;;21.30;99.90;;;;;;4664201;30;20050;-87
2022/06/30 07:06:21;;;;;;;14.13;12.90;;;21.40;99.90;;;;;;4664154;30;20060;-87
2022/06/30 07:08:46;;;;;;;14.82;13.43;;;21.40;99.90;;;;;;4664087;30;20042;-86
2022/06/30 07:11:12;;;;;;;16.08;14.63;;;21.50;99.90;;;;;;4664045;30;20043;-86
2022/06/30 07:13:38;;;;;;;15.40;14.00;;;21.60;99.90;;;;;;4663762;30;20120;-86
2022/06/30 07:16:04;;;;;;;15.70;14.10;;;21.70;99.90;;;;;;4678608;30;20054;-87
2022/06/30 07:18:30;;;;;;;15.73;14.23;;;21.80;99.90;;;;;;4663930;30;20050;-86
2022/06/30 07:20:56;;;;;;;15.50;14.20;;;21.90;99.90;;;;;;4649683;30;20046;-87
2022/06/30 07:23:22;;;;;;;15.50;14.13;;;22.00;99.90;;;;;;4663949;30;20046;-87
2022/06/30 07:25:47;;;;;;;16.00;14.18;;;22.00;99.90;;;;;;4663813;30;20048;-88
2022/06/30 07:28:13;;;;;;;14.50;13.10;;;22.20;99.90;;;;;;4664260;30;20109;-87
2022/06/30 07:30:39;;;;;;;15.48;14.15;;;22.20;99.90;;;;;;4663940;30;20088;-87
2022/06/30 07:33:04;;;;;;;15.80;14.48;;;22.30;99.90;;;;;;4692243;30;20087;-86
2022/06/30 07:35:30;;;;;;;15.70;14.30;;;22.40;99.90;;;;;;4692230;30;20047;-87
2022/06/30 07:37:56;;;;;;;16.77;15.38;;;22.50;99.90;;;;;;4677607;30;20046;-87
2022/06/30 07:40:22;;;;;;;16.40;14.88;;;22.70;99.90;;;;;;4692289;30;20054;-85
2022/06/30 07:42:48;;;;;;;16.42;15.07;;;22.80;99.90;;;;;;4692303;30;20050;-87
2022/06/30 07:45:14;;;;;;;16.48;15.15;;;23.20;99.90;;;;;;4663620;30;20050;-89
2022/06/30 07:47:41;;;;;;;16.00;14.38;;;23.60;99.90;;;;;;4664596;30;20046;-88
2022/06/30 07:50:07;;;;;;;14.88;13.57;;;24.00;99.90;;;;;;4692812;30;20046;-87
2022/06/30 07:52:33;;;;;;;15.80;14.40;;;24.70;99.90;;;;;;4663701;30;20058;-87
2022/06/30 07:54:59;;;;;;;13.85;12.15;;;25.30;99.90;;;;;;4663581;30;20046;-88
2022/06/30 07:57:27;;;;;;;13.90;12.70;;;26.00;99.90;;;;;;4663765;30;20050;-87
2022/06/30 07:59:53;;;;;;;13.13;12.02;;;26.50;99.90;;;;;;4663761;30;20058;-87
2022/06/30 08:02:18;;;;;;;13.63;12.60;;;27.10;99.90;;;;;;4663134;30;20038;-87
2022/06/30 08:04:44;;;;;;;14.13;12.80;;;27.50;99.90;;;;;;4691843;30;20057;-87
2022/06/30 08:07:10;;;;;;;13.57;12.38;;;28.00;99.10;;;;;;4692283;30;20157;-87
2022/06/30 08:09:36;;;;;;;14.43;13.23;;;28.30;97.80;;;;;;4663427;30;20050;-87
2022/06/30 08:12:03;;;;;;;14.00;12.80;;;28.60;97.60;;;;;;4663199;30;20050;-87
2022/06/30 08:14:29;;;;;;;14.35;13.00;;;28.80;94.50;;;;;;4663595;30;20081;-88
2022/06/30 08:16:55;;;;;;;12.60;11.48;;;29.10;92.80;;;;;;4663102;30;20039;-87
2022/06/30 08:19:21;;;;;;;13.68;12.45;;;29.40;92.40;;;;;;4663016;30;20415;-87
2022/06/30 08:21:47;;;;;;;14.32;13.00;;;29.60;91.40;;;;;;4663176;30;20057;-87
2022/06/30 08:24:13;;;;;;;12.85;11.65;;;29.60;86.90;;;;;;4663536;30;20046;-87
2022/06/30 08:26:39;;;;;;;13.10;11.98;;;29.70;88.50;;;;;;4663507;30;20054;-88
2022/06/30 08:29:05;;;;;;;13.68;12.50;;;29.80;85.80;;;;;;4662901;30;20561;-87
2022/06/30 08:31:32;;;;;;;13.20;12.10;;;29.90;83.20;;;;;;4662850;30;20514;-88
2022/06/30 08:33:58;;;;;;;13.50;12.45;;;30.00;83.60;;;;;;4663087;30;20510;-87
2022/06/30 08:36:24;;;;;;;13.15;11.93;;;30.20;83.40;;;;;;4663325;30;20047;-86
2022/06/30 08:38:49;;;;;;;13.65;12.45;;;30.50;81.10;;;;;;4663029;30;20051;-87
2022/06/30 08:44:00;;;;;;;13.10;12.10;;;30.90;78.40;;;;;;4678292;30;20109;-88
2022/06/30 08:46:27;;;;;;;13.77;12.68;;;31.10;76.50;;;;;;4666492;30;20057;-88
2022/06/30 08:48:54;;;;;;;13.05;12.00;;;31.20;73.40;;;;;;4666351;30;20054;-87
2022/06/30 08:51:21;;;;;;;12.98;11.88;;;31.10;75.10;;;;;;4666242;30;20054;-87
2022/06/30 08:53:57;;;;;;;13.55;12.45;;;31.10;74.00;;;;;;4665812;30;20097;-87
2022/06/30 08:56:23;;;;;;;13.85;11.65;;;31.20;72.90;;;;;;4666399;30;20464;-87
2022/06/30 08:58:51;;;;;;;13.60;12.50;;;31.20;72.80;;;;;;4666003;30;20097;-87
2022/06/30 09:01:18;;;;;;;13.30;12.10;;;31.20;71.10;;;;;;4666235;30;20039;-87
2022/06/30 09:03:44;;;;;;;14.02;12.15;;;31.30;71.30;;;;;;4666010;30;20309;-87
2022/06/30 09:06:10;;;;;;;13.40;11.30;;;31.30;71.70;;;;;;4694442;30;20087;-87
2022/06/30 09:08:36;;;;;;;12.00;10.75;;;31.50;71.40;;;;;;4665784;30;20569;-87
2022/06/30 09:11:02;;;;;;;13.30;12.00;;;31.60;71.80;;;;;;4666221;30;20137;-88
2022/06/30 09:13:48;;;;;;;13.25;12.18;;;31.70;69.70;;;;;;4665960;30;20050;-87
2022/06/30 09:16:14;;;;;;;11.32;10.43;;;31.80;67.90;;;;;;4665194;30;20525;-87
2022/06/30 09:19:29;;;;;;;;;;;;;;;;;;;;;
2022/06/30 09:22:50;;;;;;;12.10;11.00;;;32.00;65.50;;;;;;4640751;30;20063;-80
2022/06/30 09:26:04;;;;;;;10.80;9.80;;;32.10;69.20;;;;;;4684732;30;20510;-80
2022/06/30 09:29:33;;;;;;;11.63;10.50;;;32.30;69.90;;;;;;4691795;30;20050;-80
2022/06/30 09:48:28;;;;;;;9.93;9.00;;;33.20;66.10;;;;;;4638901;31;20587;-81
2022/06/30 09:51:59;;;;;;;12.27;11.23;;;33.30;62.60;;;;;;4606456;31;20051;-80
2022/06/30 10:00:13;;;;;;;;;;;;;;;;;;;;;
2022/06/30 10:07:13;;;;;;;10.88;9.73;;;33.40;62.90;;;;;;4653587;30;20096;-80
2022/06/30 10:09:58;;;;;;;12.00;10.90;;;33.50;64.10;;;;;;4636674;30;20046;-81
2022/06/30 10:16:40;;;;;;;12.13;11.02;;;32.70;62.30;;;;;;4605699;30;20061;-80
2022/06/30 10:19:50;;;;;;;13.18;11.88;;;31.90;64.50;;;;;;4668737;30;20120;-80
2022/06/30 10:23:37;;;;;;;11.18;9.93;;;31.80;62.80;;;;;;4702792;30;20405;-80
2022/06/30 10:30:29;;;;;;;11.15;10.10;;;32.30;66.40;;;;;;4649476;30;20454;-80
2022/06/30 10:37:39;;;;;;;11.40;10.20;;;32.70;62.60;;;;;;4585955;31;20060;-83
2022/06/30 11:46:59;;;;;;;;;;;;;;;;;;;;;
2022/06/30 11:50:15;;;;;;;;;;;;;;;;;;;;;
2022/06/30 11:52:57;;;;;;;9.02;8.15;;;32.30;60.90;;;;;;4688382;24;20531;-86
2022/06/30 11:55:28;;;;;;;8.35;7.55;;;32.20;59.70;;;;;;4663827;30;20042;-87
2022/06/30 11:57:54;;;;;;;10.35;9.20;;;32.00;60.90;;;;;;4663562;30;20097;-87
2022/06/30 12:00:27;;;;;;;11.13;9.95;;;31.90;60.90;;;;;;4652297;30;20054;-86
2022/06/30 12:02:53;;;;;;;10.73;9.73;;;31.80;61.10;;;;;;4662441;30;20129;-86
2022/06/30 12:05:21;;;;;;;12.63;9.77;;;31.80;61.40;;;;;;4680428;30;20141;-86
2022/06/30 12:07:47;;;;;;;10.85;9.60;;;31.60;61.00;;;;;;4680282;30;20046;-86
2022/06/30 12:10:16;;;;;;;9.15;8.20;;;31.50;61.70;;;;;;4680681;30;20458;-86
2022/06/30 12:12:43;;;;;;;11.05;8.23;;;31.30;62.80;;;;;;4680463;30;20465;-86
2022/06/30 12:15:15;;;;;;;11.02;9.93;;;31.20;64.90;;;;;;4673277;30;20176;-87
2022/06/30 12:17:46;;;;;;;8.70;7.75;;;31.10;62.20;;;;;;4673856;30;20043;-86
2022/06/30 12:20:14;;;;;;;9.32;7.38;;;31.20;63.40;;;;;;4680491;30;20052;-87
2022/06/30 12:22:43;;;;;;;6.25;4.95;;;31.30;62.80;;;;;;4660766;30;20058;-86
2022/06/30 12:25:09;;;;;;;7.63;4.90;;;31.30;64.80;;;;;;4702229;30;20577;-86
2022/06/30 12:27:41;;;;;;;7.63;5.20;;;31.40;63.50;;;;;;4666685;30;20047;-86
2022/06/30 12:30:34;;;;;;;5.63;5.10;;;31.40;62.20;;;;;;4668875;30;20045;-86
2022/06/30 12:33:02;;;;;;;7.43;5.88;;;31.30;62.40;;;;;;4657330;30;20050;-86
2022/06/30 12:35:32;;;;;;;9.63;4.95;;;31.30;63.20;;;;;;4674570;30;20053;-86
2022/06/30 12:38:12;;;;;;;11.27;7.15;;;31.30;64.60;;;;;;4672160;30;20093;-85
2022/06/30 12:40:40;;;;;;;9.73;6.10;;;31.20;63.80;;;;;;4658629;30;20379;-85
2022/06/30 12:43:07;;;;;;;8.35;6.60;;;31.10;64.00;;;;;;4683710;30;20413;-87
2022/06/30 12:46:00;;;;;;;7.88;5.72;;;30.90;64.60;;;;;;4678103;30;20050;-86
2022/06/30 12:48:38;;;;;;;;;;;30.70;66.00;;;;;;4649723;30;20054;-86
2022/06/30 12:51:04;;;;;;;7.57;6.32;;;30.60;66.20;;;;;;4677972;30;20019;-85
2022/06/30 12:53:30;;;;;;;5.55;4.90;;;30.60;66.70;;;;;;4680542;30;20074;-87
2022/06/30 12:56:00;;;;;;;7.28;4.90;;;30.60;66.70;;;;;;4683507;30;20118;-85
2022/06/30 12:58:26;;;;;;;8.25;5.55;;;30.60;67.20;;;;;;4683245;30;20053;-86
2022/06/30 13:00:58;;;;;;;12.55;5.47;;;30.80;67.10;;;;;;4677890;30;20073;-86
2022/06/30 13:03:24;;;;;;;5.65;4.70;;;30.90;66.80;;;;;;4677423;30;20046;-86
2022/06/30 13:05:49;;;;;;;6.85;4.57;;;31.00;65.70;;;;;;4683079;30;20053;-85
2022/06/30 13:08:15;;;;;;;9.75;5.40;;;31.00;66.30;;;;;;4681075;30;20088;-86
2022/06/30 13:13:25;;;;;;;7.70;4.95;;;31.00;65.60;;;;;;4648792;30;20574;-86
2022/06/30 13:15:50;;;;;;;8.07;5.20;;;30.90;64.60;;;;;;4677628;30;20059;-86
2022/06/30 13:18:16;;;;;;;7.95;4.68;;;30.80;63.50;;;;;;4678532;30;20065;-86
2022/06/30 13:20:41;;;;;;;8.40;4.95;;;30.70;64.10;;;;;;4658654;30;20042;-87
2022/06/30 13:23:07;;;;;;;8.35;4.50;;;30.50;63.30;;;;;;4682422;30;20050;-86
2022/06/30 13:25:34;;;;;;;8.00;4.10;;;30.30;64.50;;;;;;4682845;30;20140;-86
2022/06/30 13:28:00;;;;;;;7.80;4.60;;;30.20;65.80;;;;;;4671050;30;20042;-86
2022/06/30 13:30:25;;;;;;;6.97;4.00;;;30.20;64.40;;;;;;4681451;30;20061;-87
2022/06/30 13:32:51;;;;;;;7.28;4.38;;;30.20;64.40;;;;;;4680341;30;20079;-86
2022/06/30 13:35:16;;;;;;;6.10;3.70;;;30.20;65.70;;;;;;4677637;30;20494;-87
2022/06/30 13:37:42;;;;;;;6.20;4.35;;;30.30;66.40;;;;;;4675282;30;20037;-86
2022/06/30 13:40:08;;;;;;;7.38;4.15;;;30.50;64.20;;;;;;4667837;30;20631;-86
2022/06/30 13:42:34;;;;;;;8.90;4.45;;;30.60;64.60;;;;;;4682721;30;20097;-87
2022/06/30 13:44:59;;;;;;;6.20;4.07;;;30.80;64.30;;;;;;4681050;30;20049;-86
2022/06/30 13:47:26;;;;;;;7.60;4.72;;;30.90;64.30;;;;;;4682490;30;20418;-86
2022/06/30 13:49:51;;;;;;;7.15;4.43;;;31.00;63.50;;;;;;4680094;30;20061;-87
2022/06/30 13:52:17;;;;;;;7.85;5.55;;;31.00;62.50;;;;;;4671800;30;20050;-89
2022/06/30 13:54:42;;;;;;;6.78;4.57;;;30.90;60.70;;;;;;4665448;30;20058;-88
2022/06/30 13:57:08;;;;;;;8.50;4.82;;;30.80;62.20;;;;;;4671955;30;20426;-87
2022/06/30 13:59:34;;;;;;;5.88;3.90;;;30.70;62.80;;;;;;4665713;30;20058;-88
2022/06/30 14:02:00;;;;;;;4.32;2.97;;;30.50;61.10;;;;;;4666558;30;20049;-88
2022/06/30 14:04:25;;;;;;;6.00;4.05;;;30.20;61.00;;;;;;4677763;30;20038;-86
2022/06/30 14:06:51;;;;;;;8.52;4.43;;;29.90;61.60;;;;;;4665177;30;20113;-86
2022/06/30 14:09:17;;;;;;;7.47;4.00;;;29.70;63.40;;;;;;4665245;30;20134;-87
2022/06/30 14:11:42;;;;;;;9.23;4.10;;;29.70;64.70;;;;;;4665559;30;20047;-87
2022/06/30 14:14:08;;;;;;;7.38;4.20;;;29.70;65.90;;;;;;4665116;30;20577;-87
2022/06/30 14:16:34;;;;;;;8.52;4.75;;;29.70;64.70;;;;;;4670029;30;20045;-87
2022/06/30 14:18:59;;;;;;;5.53;3.75;;;29.60;66.10;;;;;;4681957;30;20050;-87
2022/06/30 14:21:25;;;;;;;7.75;3.67;;;29.70;66.00;;;;;;4682180;30;20068;-88
2022/06/30 14:23:51;;;;;;;6.47;4.40;;;29.70;65.20;;;;;;4682601;30;20364;-87
2022/06/30 14:26:17;;;;;;;7.65;4.10;;;29.70;65.00;;;;;;4682194;30;20137;-87
2022/06/30 14:28:42;;;;;;;6.32;4.30;;;29.70;65.90;;;;;;4682302;30;20050;-87
2022/06/30 14:31:08;;;;;;;8.00;4.22;;;29.60;66.50;;;;;;4674501;30;20061;-87
2022/06/30 14:33:34;;;;;;;6.28;4.60;;;29.70;67.50;;;;;;4656596;30;20042;-87
2022/06/30 14:35:59;;;;;;;6.07;4.07;;;29.80;65.80;;;;;;4666305;30;20046;-87
2022/06/30 14:38:25;;;;;;;8.27;4.78;;;29.90;68.20;;;;;;4673844;30;20038;-87
2022/06/30 14:40:51;;;;;;;6.82;4.13;;;30.10;67.80;;;;;;4673852;30;20093;-86
2022/06/30 14:43:16;;;;;;;6.55;4.25;;;30.30;68.10;;;;;;4681965;30;20418;-87
2022/06/30 14:45:42;;;;;;;8.48;4.35;;;30.40;67.60;;;;;;4665819;30;20062;-87